Αναφορές Αεροδρομίων

 

KSJC - San Jose, California, USA
Distance from station: ΒΑ 14km
Ενημερώθηκε: 14/04/2021 12:53
Αίθριος
Αίθριος
 Ανεμος από ΝΑ
Ανεμος: ΝΑ 17 km/h
Θερμοκρασία: 9°C
Wind Chill: 7°C
Σημείο Δρόσου: 5°C
Υγρασία: 76%
Βαρόμετρο: 1012.5 hPa
Clouds: Αίθριος
Visibility: 16 km
2021/04/14 09:53 KSJC 140953Z AUTO 14009KT 10SM CLR 09/05 A2990 RMK AO2 SLP124 T00890050
KNUQ - Moffett Nas/Mtn, California, USA
Distance from station: Β 14km
Ενημερώθηκε: 14/04/2021 01:40
NOT Current

 
2021/04/13 22:40 KNUQ 132240Z AUTO RMK AO2 PNO PWINO TSNO
 
KPAO - Palo Alto, California, USA
Distance from station: ΒΒΔ 23km
Ενημερώθηκε: 14/04/2021 06:47
NOT Current
Αίθριος
Αίθριος
 Ανεμος από varies
Ανεμος: varies 7 km/h
Θερμοκρασία: 11°C
Σημείο Δρόσου: 5°C
Υγρασία: 67%
Βαρόμετρο: 1011.9 hPa
Clouds: Αίθριος
Visibility: 16 km
2021/04/14 03:47 KPAO 140347Z VRB04KT 10SM SKC 11/05 A2988 RMK LAST
KRHV - San Jose/Reid, California, USA
Distance from station: ΑΒΑ 19km
Ενημερώθηκε: 14/04/2021 07:47
NOT Current
Αίθριος
Αίθριος
 Ανεμος από calm
Ανεμος: Απνοια
Θερμοκρασία: 12°C
Σημείο Δρόσου: 5°C
Υγρασία: 63%
Βαρόμετρο: 1011.5 hPa
Clouds: Αίθριος
Visibility: 16 km
2021/04/14 04:47 KRHV 140447Z 00000KT 10SM SKC 12/05 A2987 RMK LAST
 
KOAK - Oakland, California, USA
Distance from station: ΒΒΔ 50km
Ενημερώθηκε: 14/04/2021 12:53
Σχεδόν νεφελώδης
Σχεδόν νεφελώδης
 Ανεμος από Ν
Ανεμος: Ν 9 km/h
Θερμοκρασία: 11°C
Σημείο Δρόσου: 6°C
Υγρασία: 72%
Βαρόμετρο: 1012.2 hPa
Clouds: Σχεδόν νεφελώδης
Visibility: 16 km
Cloud details: Σχεδόν νεφελώδης 579 m
2021/04/14 09:53 KOAK 140953Z 18005KT 10SM BKN019 11/06 A2989 RMK AO2 SLP122 T01110061
KSQL - San Carlos Airpo, California, USA
Distance from station: ΒΔ 34km
Ενημερώθηκε: 14/04/2021 13:15
Few Clouds
Few Clouds
 Ανεμος από calm
Ανεμος: Απνοια
Θερμοκρασία: 8°C
Σημείο Δρόσου: 5°C
Υγρασία: 82%
Βαρόμετρο: 1012.5 hPa
Clouds: Few Clouds
Visibility: 16 km
Cloud details: Few Clouds 640 m
Few Clouds 823 m
2021/04/14 10:15 KSQL 141015Z AUTO 00000KT 10SM FEW021 FEW027 08/05 A2990 RMK AO2
 
KSFO - San Francisco, California, USA
Distance from station: ΒΔ 49km
Ενημερώθηκε: 14/04/2021 12:56
Few Clouds
Few Clouds
 Ανεμος από calm
Ανεμος: Απνοια
Θερμοκρασία: 11°C
Σημείο Δρόσου: 6°C
Υγρασία: 72%
Βαρόμετρο: 1011.9 hPa
Clouds: Few Clouds
Visibility: 16 km
Cloud details: Few Clouds 579 m
2021/04/14 09:56 KSFO 140956Z 00000KT 10SM FEW019 11/06 A2988 RMK AO2 SLP119 T01060056
KE16 - San Martin, California, USA
Distance from station: ΑΝΑ 43km
Ενημερώθηκε: 14/04/2021 13:15
Few Clouds
Few Clouds
 Ανεμος από ΑΝΑ
Ανεμος: ΑΝΑ 6 km/h
Θερμοκρασία: 8°C
Σημείο Δρόσου: 4°C
Υγρασία: 76%
Βαρόμετρο: 1013.5 hPa
Clouds: Few Clouds
Visibility: 16 km
Cloud details: Few Clouds 1036 m
2021/04/14 10:15 KE16 141015Z AUTO 11003KT 10SM FEW034 08/04 A2993 RMK AO2 PWINO PNO
 
KWVI - Watsonville, California, USA
Distance from station: ΝΝΑ 44km
Ενημερώθηκε: 14/04/2021 12:53
Συννεφιά
Συννεφιά
 Ανεμος από Δ
Ανεμος: Δ 6 km/h
Θερμοκρασία: 10°C
Σημείο Δρόσου: 6°C
Υγρασία: 76%
Βαρόμετρο: 1013.5 hPa
Clouds: Συννεφιά
Visibility: 16 km
Cloud details: Συννεφιά 823 m
2021/04/14 09:53 KWVI 140953Z AUTO 26003KT 10SM OVC027 10/06 A2993 RMK AO2 SLP134 T01000056
KHAF - Half Moon Bay, California, USA
Distance from station: ΔΒΔ 50km
Ενημερώθηκε: 14/04/2021 13:15
Haze, Συννεφιά
Haze, Συννεφιά
 Ανεμος από ΝΔ
Ανεμος: ΝΔ 9 km/h
Θερμοκρασία: 10°C
Wind Chill: 9°C
Σημείο Δρόσου: 7°C
Υγρασία: 82%
Βαρόμετρο: 1012.5 hPa
Περίληψη: Haze
Clouds: Συννεφιά
Visibility: 6 km
Cloud details: Συννεφιά 488 m
2021/04/14 10:15 KHAF 141015Z AUTO 22005KT 4SM HZ OVC016 10/07 A2990 RMK AO2
 
KHWD - Hayward, California, USA
Distance from station: Β 44km
Ενημερώθηκε: 14/04/2021 12:54
Αίθριος
Αίθριος
 Ανεμος από ΝΑ
Ανεμος: ΝΑ 9 km/h
Θερμοκρασία: 9°C
Wind Chill: 7°C
Σημείο Δρόσου: 5°C
Υγρασία: 76%
Βαρόμετρο: 1011.9 hPa
Clouds: Αίθριος
Visibility: 16 km
2021/04/14 09:54 KHWD 140954Z AUTO 14005KT 10SM CLR 09/05 A2988 RMK AO2 SLP129 T00940050
KLVK - Livermore, California, USA
Distance from station: ΒΒΑ 51km
Ενημερώθηκε: 14/04/2021 12:53
Few Clouds
Few Clouds
 Ανεμος από Δ
Ανεμος: Δ 15 km/h
Θερμοκρασία: 8°C
Wind Chill: 5°C
Σημείο Δρόσου: 4°C
Υγρασία: 76%
Βαρόμετρο: 1011.5 hPa
Clouds: Few Clouds
Visibility: 16 km
Cloud details: Few Clouds 671 m
2021/04/14 09:53 KLVK 140953Z AUTO 26008KT 10SM FEW022 08/04 A2987 RMK AO2 SLP113 T00830044